sensor_id;sensor_type;location;lat;lon;timestamp;P1;durP1;ratioP1;P2;durP2;ratioP2
15383;SDS011;7790;53.022;12.968;2023-07-20T00:01:33;0.93;;;0.90;;
15383;SDS011;7790;53.022;12.968;2023-07-20T00:05:34;0.90;;;0.90;;
15383;SDS011;7790;53.022;12.968;2023-07-20T00:09:35;1.10;;;1.10;;
15383;SDS011;7790;53.022;12.968;2023-07-20T00:13:36;1.00;;;1.00;;
15383;SDS011;7790;53.022;12.968;2023-07-20T00:17:37;1.03;;;1.03;;
15383;SDS011;7790;53.022;12.968;2023-07-20T00:21:40;0.80;;;0.80;;
15383;SDS011;7790;53.022;12.968;2023-07-20T00:25:41;1.30;;;1.20;;
15383;SDS011;7790;53.022;12.968;2023-07-20T00:29:41;2.80;;;1.13;;
15383;SDS011;7790;53.022;12.968;2023-07-20T00:33:43;0.93;;;0.90;;
15383;SDS011;7790;53.022;12.968;2023-07-20T00:37:44;1.47;;;0.90;;
15383;SDS011;7790;53.022;12.968;2023-07-20T00:41:45;1.20;;;1.10;;
15383;SDS011;7790;53.022;12.968;2023-07-20T00:45:46;1.53;;;1.43;;
15383;SDS011;7790;53.022;12.968;2023-07-20T00:49:46;3.70;;;1.20;;
15383;SDS011;7790;53.022;12.968;2023-07-20T00:53:48;1.10;;;1.00;;
15383;SDS011;7790;53.022;12.968;2023-07-20T00:57:49;1.00;;;1.00;;
15383;SDS011;7790;53.022;12.968;2023-07-20T01:01:53;1.17;;;1.07;;
15383;SDS011;7790;53.022;12.968;2023-07-20T01:05:55;1.17;;;1.07;;
15383;SDS011;7790;53.022;12.968;2023-07-20T01:10:07;1.20;;;1.10;;
15383;SDS011;7790;53.022;12.968;2023-07-20T01:14:14;1.10;;;1.00;;
15383;SDS011;7790;53.022;12.968;2023-07-20T01:18:17;1.20;;;1.10;;
15383;SDS011;7790;53.022;12.968;2023-07-20T01:31:34;1.37;;;1.10;;
15383;SDS011;7790;53.022;12.968;2023-07-20T01:35:36;0.87;;;0.87;;
15383;SDS011;7790;53.022;12.968;2023-07-20T01:39:40;1.70;;;1.37;;
15383;SDS011;7790;53.022;12.968;2023-07-20T01:43:42;0.80;;;0.80;;
15383;SDS011;7790;53.022;12.968;2023-07-20T01:47:43;0.80;;;0.80;;
15383;SDS011;7790;53.022;12.968;2023-07-20T01:51:44;1.20;;;1.00;;
15383;SDS011;7790;53.022;12.968;2023-07-20T01:55:45;0.87;;;0.80;;
15383;SDS011;7790;53.022;12.968;2023-07-20T01:59:47;1.57;;;1.10;;
15383;SDS011;7790;53.022;12.968;2023-07-20T02:03:48;1.10;;;0.90;;
15383;SDS011;7790;53.022;12.968;2023-07-20T02:07:49;0.73;;;0.73;;
15383;SDS011;7790;53.022;12.968;2023-07-20T02:11:54;1.83;;;0.80;;
15383;SDS011;7790;53.022;12.968;2023-07-20T02:15:54;1.07;;;0.97;;
15383;SDS011;7790;53.022;12.968;2023-07-20T02:19:56;0.90;;;0.90;;
15383;SDS011;7790;53.022;12.968;2023-07-20T02:23:57;0.90;;;0.90;;
15383;SDS011;7790;53.022;12.968;2023-07-20T02:27:58;1.43;;;1.10;;
15383;SDS011;7790;53.022;12.968;2023-07-20T02:32:00;0.80;;;0.80;;
15383;SDS011;7790;53.022;12.968;2023-07-20T02:36:01;1.23;;;1.10;;
15383;SDS011;7790;53.022;12.968;2023-07-20T02:40:01;0.87;;;0.87;;
15383;SDS011;7790;53.022;12.968;2023-07-20T02:44:04;1.20;;;1.10;;
15383;SDS011;7790;53.022;12.968;2023-07-20T02:48:05;1.30;;;1.20;;
15383;SDS011;7790;53.022;12.968;2023-07-20T02:52:08;1.70;;;0.90;;
15383;SDS011;7790;53.022;12.968;2023-07-20T02:56:09;1.00;;;1.00;;
15383;SDS011;7790;53.022;12.968;2023-07-20T03:00:10;1.03;;;0.93;;
15383;SDS011;7790;53.022;12.968;2023-07-20T03:04:11;1.03;;;0.93;;
15383;SDS011;7790;53.022;12.968;2023-07-20T03:08:12;1.40;;;1.30;;
15383;SDS011;7790;53.022;12.968;2023-07-20T03:12:13;0.93;;;0.93;;
15383;SDS011;7790;53.022;12.968;2023-07-20T03:16:18;0.83;;;0.83;;
15383;SDS011;7790;53.022;12.968;2023-07-20T03:20:20;0.90;;;0.90;;
15383;SDS011;7790;53.022;12.968;2023-07-20T03:24:21;1.40;;;1.10;;
15383;SDS011;7790;53.022;12.968;2023-07-20T03:28:24;1.77;;;1.20;;
15383;SDS011;7790;53.022;12.968;2023-07-20T03:32:26;1.93;;;1.00;;
15383;SDS011;7790;53.022;12.968;2023-07-20T03:36:26;2.57;;;1.77;;
15383;SDS011;7790;53.022;12.968;2023-07-20T03:40:27;4.17;;;2.40;;
15383;SDS011;7790;53.022;12.968;2023-07-20T03:44:28;3.63;;;2.40;;
15383;SDS011;7790;53.022;12.968;2023-07-20T03:48:29;2.87;;;2.50;;
15383;SDS011;7790;53.022;12.968;2023-07-20T03:52:30;5.53;;;2.50;;
15383;SDS011;7790;53.022;12.968;2023-07-20T03:56:31;2.70;;;2.50;;
15383;SDS011;7790;53.022;12.968;2023-07-20T04:00:35;3.20;;;2.43;;
15383;SDS011;7790;53.022;12.968;2023-07-20T04:04:36;3.40;;;2.60;;
15383;SDS011;7790;53.022;12.968;2023-07-20T04:08:37;3.87;;;2.90;;
15383;SDS011;7790;53.022;12.968;2023-07-20T04:12:38;3.40;;;2.63;;
15383;SDS011;7790;53.022;12.968;2023-07-20T04:16:39;4.83;;;2.53;;
15383;SDS011;7790;53.022;12.968;2023-07-20T04:20:40;2.73;;;2.53;;
15383;SDS011;7790;53.022;12.968;2023-07-20T04:24:42;4.47;;;2.90;;
15383;SDS011;7790;53.022;12.968;2023-07-20T04:28:43;2.97;;;2.67;;
15383;SDS011;7790;53.022;12.968;2023-07-20T04:32:48;2.93;;;2.73;;
15383;SDS011;7790;53.022;12.968;2023-07-20T04:36:49;3.50;;;3.20;;
15383;SDS011;7790;53.022;12.968;2023-07-20T04:40:51;5.47;;;3.17;;
15383;SDS011;7790;53.022;12.968;2023-07-20T04:44:52;3.67;;;3.10;;
15383;SDS011;7790;53.022;12.968;2023-07-20T04:48:53;4.60;;;2.80;;
15383;SDS011;7790;53.022;12.968;2023-07-20T04:52:54;3.80;;;3.10;;
15383;SDS011;7790;53.022;12.968;2023-07-20T04:56:56;3.00;;;2.80;;
15383;SDS011;7790;53.022;12.968;2023-07-20T05:00:58;3.37;;;3.07;;
15383;SDS011;7790;53.022;12.968;2023-07-20T05:04:59;4.10;;;3.00;;
15383;SDS011;7790;53.022;12.968;2023-07-20T05:08:59;3.47;;;3.10;;
15383;SDS011;7790;53.022;12.968;2023-07-20T05:13:01;3.13;;;2.83;;
15383;SDS011;7790;53.022;12.968;2023-07-20T05:17:02;4.13;;;3.00;;
15383;SDS011;7790;53.022;12.968;2023-07-20T05:21:05;3.57;;;2.43;;
15383;SDS011;7790;53.022;12.968;2023-07-20T05:25:10;2.90;;;2.60;;
15383;SDS011;7790;53.022;12.968;2023-07-20T05:29:11;2.93;;;2.70;;
15383;SDS011;7790;53.022;12.968;2023-07-20T05:33:12;2.70;;;2.50;;
15383;SDS011;7790;53.022;12.968;2023-07-20T05:37:13;3.33;;;2.43;;
15383;SDS011;7790;53.022;12.968;2023-07-20T05:41:14;3.00;;;2.33;;
15383;SDS011;7790;53.022;12.968;2023-07-20T05:45:15;2.67;;;2.10;;
15383;SDS011;7790;53.022;12.968;2023-07-20T05:49:16;3.40;;;2.30;;
15383;SDS011;7790;53.022;12.968;2023-07-20T05:53:17;2.33;;;2.23;;
15383;SDS011;7790;53.022;12.968;2023-07-20T05:57:17;2.47;;;2.27;;
15383;SDS011;7790;53.022;12.968;2023-07-20T06:01:18;2.17;;;1.97;;
15383;SDS011;7790;53.022;12.968;2023-07-20T06:05:19;2.57;;;1.90;;
15383;SDS011;7790;53.022;12.968;2023-07-20T06:09:21;2.27;;;1.90;;
15383;SDS011;7790;53.022;12.968;2023-07-20T06:13:22;2.30;;;1.70;;
15383;SDS011;7790;53.022;12.968;2023-07-20T06:17:24;1.97;;;1.87;;
15383;SDS011;7790;53.022;12.968;2023-07-20T06:21:25;1.50;;;1.40;;
15383;SDS011;7790;53.022;12.968;2023-07-20T06:25:26;2.00;;;1.80;;
15383;SDS011;7790;53.022;12.968;2023-07-20T06:29:27;2.73;;;1.87;;
15383;SDS011;7790;53.022;12.968;2023-07-20T06:33:28;3.40;;;1.70;;
15383;SDS011;7790;53.022;12.968;2023-07-20T06:37:29;2.20;;;1.40;;
15383;SDS011;7790;53.022;12.968;2023-07-20T06:41:29;1.67;;;1.50;;
15383;SDS011;7790;53.022;12.968;2023-07-20T06:45:30;3.60;;;1.70;;
15383;SDS011;7790;53.022;12.968;2023-07-20T06:49:31;1.60;;;1.30;;
15383;SDS011;7790;53.022;12.968;2023-07-20T06:53:32;2.07;;;1.37;;
15383;SDS011;7790;53.022;12.968;2023-07-20T06:57:33;2.50;;;1.13;;
15383;SDS011;7790;53.022;12.968;2023-07-20T07:01:34;0.87;;;0.87;;
15383;SDS011;7790;53.022;12.968;2023-07-20T07:05:36;1.30;;;0.97;;
15383;SDS011;7790;53.022;12.968;2023-07-20T07:09:37;2.03;;;1.00;;
15383;SDS011;7790;53.022;12.968;2023-07-20T07:13:38;1.37;;;1.00;;
15383;SDS011;7790;53.022;12.968;2023-07-20T07:17:39;2.63;;;1.00;;
15383;SDS011;7790;53.022;12.968;2023-07-20T07:21:40;1.00;;;0.97;;
15383;SDS011;7790;53.022;12.968;2023-07-20T07:25:41;1.90;;;1.03;;
15383;SDS011;7790;53.022;12.968;2023-07-20T07:29:42;12.20;;;1.87;;
15383;SDS011;7790;53.022;12.968;2023-07-20T07:33:47;7.43;;;1.30;;
15383;SDS011;7790;53.022;12.968;2023-07-20T07:37:47;4.23;;;1.30;;
15383;SDS011;7790;53.022;12.968;2023-07-20T07:41:48;4.67;;;1.10;;
15383;SDS011;7790;53.022;12.968;2023-07-20T07:45:49;5.73;;;1.13;;
15383;SDS011;7790;53.022;12.968;2023-07-20T07:49:53;5.70;;;1.83;;
15383;SDS011;7790;53.022;12.968;2023-07-20T07:53:54;2.17;;;1.20;;
15383;SDS011;7790;53.022;12.968;2023-07-20T07:57:55;2.80;;;1.10;;
15383;SDS011;7790;53.022;12.968;2023-07-20T08:01:56;2.30;;;1.30;;
15383;SDS011;7790;53.022;12.968;2023-07-20T08:05:58;1.37;;;1.20;;
15383;SDS011;7790;53.022;12.968;2023-07-20T08:10:00;8.13;;;1.63;;
15383;SDS011;7790;53.022;12.968;2023-07-20T08:14:01;7.80;;;1.73;;
15383;SDS011;7790;53.022;12.968;2023-07-20T08:18:02;8.80;;;1.70;;
15383;SDS011;7790;53.022;12.968;2023-07-20T08:22:03;8.57;;;2.30;;
15383;SDS011;7790;53.022;12.968;2023-07-20T08:26:04;11.20;;;2.63;;
15383;SDS011;7790;53.022;12.968;2023-07-20T08:30:05;14.77;;;3.30;;
15383;SDS011;7790;53.022;12.968;2023-07-20T08:34:06;7.53;;;2.00;;
15383;SDS011;7790;53.022;12.968;2023-07-20T08:38:07;1.80;;;1.60;;
15383;SDS011;7790;53.022;12.968;2023-07-20T08:42:09;3.60;;;1.67;;
15383;SDS011;7790;53.022;12.968;2023-07-20T08:46:10;2.03;;;1.60;;
15383;SDS011;7790;53.022;12.968;2023-07-20T08:50:13;2.10;;;1.80;;
15383;SDS011;7790;53.022;12.968;2023-07-20T08:54:15;3.23;;;1.43;;
15383;SDS011;7790;53.022;12.968;2023-07-20T08:58:16;1.40;;;1.30;;
15383;SDS011;7790;53.022;12.968;2023-07-20T09:02:18;1.33;;;1.23;;
15383;SDS011;7790;53.022;12.968;2023-07-20T09:06:21;1.40;;;1.30;;
15383;SDS011;7790;53.022;12.968;2023-07-20T09:10:22;1.40;;;1.30;;
15383;SDS011;7790;53.022;12.968;2023-07-20T09:14:24;1.40;;;1.30;;
15383;SDS011;7790;53.022;12.968;2023-07-20T09:18:25;3.53;;;1.63;;
15383;SDS011;7790;53.022;12.968;2023-07-20T09:22:31;2.67;;;1.60;;
15383;SDS011;7790;53.022;12.968;2023-07-20T09:26:32;3.00;;;1.30;;
15383;SDS011;7790;53.022;12.968;2023-07-20T09:30:42;2.50;;;1.60;;
15383;SDS011;7790;53.022;12.968;2023-07-20T09:34:43;1.93;;;1.40;;
15383;SDS011;7790;53.022;12.968;2023-07-20T09:38:44;0.93;;;0.83;;
15383;SDS011;7790;53.022;12.968;2023-07-20T09:42:46;1.07;;;1.00;;
15383;SDS011;7790;53.022;12.968;2023-07-20T09:46:48;1.57;;;1.00;;
15383;SDS011;7790;53.022;12.968;2023-07-20T09:50:51;1.23;;;1.13;;
15383;SDS011;7790;53.022;12.968;2023-07-20T09:54:52;2.50;;;1.20;;
15383;SDS011;7790;53.022;12.968;2023-07-20T09:58:56;12.63;;;1.57;;
15383;SDS011;7790;53.022;12.968;2023-07-20T10:02:57;3.30;;;0.80;;
15383;SDS011;7790;53.022;12.968;2023-07-20T10:07:00;1.53;;;0.87;;
15383;SDS011;7790;53.022;12.968;2023-07-20T10:11:05;2.43;;;1.10;;
15383;SDS011;7790;53.022;12.968;2023-07-20T10:15:13;1.47;;;0.70;;
15383;SDS011;7790;53.022;12.968;2023-07-20T10:23:47;0.53;;;0.53;;
15383;SDS011;7790;53.022;12.968;2023-07-20T10:27:48;0.70;;;0.63;;
15383;SDS011;7790;53.022;12.968;2023-07-20T10:31:49;0.90;;;0.70;;
15383;SDS011;7790;53.022;12.968;2023-07-20T10:35:51;2.30;;;0.80;;
15383;SDS011;7790;53.022;12.968;2023-07-20T10:39:53;8.73;;;1.30;;
15383;SDS011;7790;53.022;12.968;2023-07-20T10:44:01;6.27;;;1.17;;
15383;SDS011;7790;53.022;12.968;2023-07-20T10:48:03;2.23;;;0.83;;
15383;SDS011;7790;53.022;12.968;2023-07-20T10:52:06;2.10;;;0.60;;
15383;SDS011;7790;53.022;12.968;2023-07-20T10:56:12;1.00;;;0.60;;
15383;SDS011;7790;53.022;12.968;2023-07-20T11:00:14;1.17;;;0.40;;
15383;SDS011;7790;53.022;12.968;2023-07-20T11:04:19;1.43;;;0.50;;
15383;SDS011;7790;53.022;12.968;2023-07-20T11:08:38;3.10;;;0.93;;
15383;SDS011;7790;53.022;12.968;2023-07-20T11:12:41;3.60;;;0.90;;
15383;SDS011;7790;53.022;12.968;2023-07-20T11:17:32;6.00;;;1.20;;
15383;SDS011;7790;53.022;12.968;2023-07-20T11:21:38;2.77;;;1.20;;
15383;SDS011;7790;53.022;12.968;2023-07-20T11:25:41;2.13;;;1.23;;
15383;SDS011;7790;53.022;12.968;2023-07-20T11:29:42;1.23;;;0.97;;
15383;SDS011;7790;53.022;12.968;2023-07-20T11:33:46;1.33;;;1.03;;
15383;SDS011;7790;53.022;12.968;2023-07-20T11:37:47;8.33;;;0.87;;
15383;SDS011;7790;53.022;12.968;2023-07-20T11:45:48;4.77;;;0.80;;
15383;SDS011;7790;53.022;12.968;2023-07-20T11:49:50;1.43;;;1.00;;
15383;SDS011;7790;53.022;12.968;2023-07-20T11:53:54;3.50;;;1.07;;
15383;SDS011;7790;53.022;12.968;2023-07-20T11:58:06;4.07;;;0.90;;
15383;SDS011;7790;53.022;12.968;2023-07-20T12:02:08;0.80;;;0.60;;
15383;SDS011;7790;53.022;12.968;2023-07-20T12:06:09;2.97;;;0.87;;
15383;SDS011;7790;53.022;12.968;2023-07-20T12:10:11;1.70;;;0.67;;
15383;SDS011;7790;53.022;12.968;2023-07-20T12:14:12;3.50;;;0.70;;
15383;SDS011;7790;53.022;12.968;2023-07-20T12:18:13;0.60;;;0.60;;
15383;SDS011;7790;53.022;12.968;2023-07-20T12:22:14;0.80;;;0.80;;
15383;SDS011;7790;53.022;12.968;2023-07-20T12:26:15;5.40;;;0.60;;
15383;SDS011;7790;53.022;12.968;2023-07-20T12:30:16;1.10;;;0.80;;
15383;SDS011;7790;53.022;12.968;2023-07-20T12:34:17;3.20;;;1.03;;
15383;SDS011;7790;53.022;12.968;2023-07-20T12:38:18;1.63;;;1.00;;
15383;SDS011;7790;53.022;12.968;2023-07-20T12:42:18;5.13;;;1.20;;
15383;SDS011;7790;53.022;12.968;2023-07-20T12:46:19;1.13;;;0.87;;
15383;SDS011;7790;53.022;12.968;2023-07-20T12:50:20;3.97;;;0.90;;
15383;SDS011;7790;53.022;12.968;2023-07-20T12:54:21;3.80;;;1.03;;
15383;SDS011;7790;53.022;12.968;2023-07-20T12:58:22;2.43;;;0.73;;
15383;SDS011;7790;53.022;12.968;2023-07-20T13:02:24;1.90;;;0.90;;
15383;SDS011;7790;53.022;12.968;2023-07-20T13:06:24;1.10;;;1.00;;
15383;SDS011;7790;53.022;12.968;2023-07-20T13:10:25;2.50;;;0.80;;
15383;SDS011;7790;53.022;12.968;2023-07-20T13:14:26;1.33;;;1.03;;
15383;SDS011;7790;53.022;12.968;2023-07-20T13:18:29;3.30;;;1.00;;
15383;SDS011;7790;53.022;12.968;2023-07-20T13:22:30;1.17;;;0.87;;
15383;SDS011;7790;53.022;12.968;2023-07-20T13:26:31;2.23;;;1.00;;
15383;SDS011;7790;53.022;12.968;2023-07-20T13:30:32;0.87;;;0.80;;
15383;SDS011;7790;53.022;12.968;2023-07-20T13:34:33;1.17;;;0.80;;
15383;SDS011;7790;53.022;12.968;2023-07-20T13:38:34;1.57;;;1.10;;
15383;SDS011;7790;53.022;12.968;2023-07-20T13:42:35;2.87;;;0.90;;
15383;SDS011;7790;53.022;12.968;2023-07-20T13:46:36;1.20;;;1.10;;
15383;SDS011;7790;53.022;12.968;2023-07-20T13:50:37;1.73;;;1.00;;
15383;SDS011;7790;53.022;12.968;2023-07-20T13:54:38;1.90;;;1.10;;
15383;SDS011;7790;53.022;12.968;2023-07-20T13:58:38;1.57;;;1.00;;
15383;SDS011;7790;53.022;12.968;2023-07-20T14:02:40;1.83;;;1.23;;
15383;SDS011;7790;53.022;12.968;2023-07-20T14:06:42;1.50;;;0.97;;
15383;SDS011;7790;53.022;12.968;2023-07-20T14:10:43;1.07;;;0.97;;
15383;SDS011;7790;53.022;12.968;2023-07-20T14:14:44;1.33;;;0.97;;
15383;SDS011;7790;53.022;12.968;2023-07-20T14:18:45;1.87;;;1.13;;
15383;SDS011;7790;53.022;12.968;2023-07-20T14:22:49;1.60;;;1.17;;
15383;SDS011;7790;53.022;12.968;2023-07-20T14:26:50;2.50;;;1.30;;
15383;SDS011;7790;53.022;12.968;2023-07-20T14:30:51;1.37;;;1.03;;
15383;SDS011;7790;53.022;12.968;2023-07-20T14:34:52;1.63;;;1.33;;
15383;SDS011;7790;53.022;12.968;2023-07-20T14:38:53;3.00;;;1.30;;
15383;SDS011;7790;53.022;12.968;2023-07-20T14:42:55;1.77;;;1.30;;
15383;SDS011;7790;53.022;12.968;2023-07-20T14:46:56;3.33;;;1.10;;
15383;SDS011;7790;53.022;12.968;2023-07-20T14:50:57;1.57;;;1.27;;
15383;SDS011;7790;53.022;12.968;2023-07-20T14:54:58;3.43;;;1.20;;
15383;SDS011;7790;53.022;12.968;2023-07-20T14:58:58;3.17;;;1.43;;
15383;SDS011;7790;53.022;12.968;2023-07-20T15:03:00;5.67;;;1.43;;
15383;SDS011;7790;53.022;12.968;2023-07-20T15:07:01;1.40;;;1.27;;
15383;SDS011;7790;53.022;12.968;2023-07-20T15:11:03;2.93;;;1.10;;
15383;SDS011;7790;53.022;12.968;2023-07-20T15:15:04;2.43;;;1.20;;
15383;SDS011;7790;53.022;12.968;2023-07-20T15:19:08;2.17;;;0.87;;
15383;SDS011;7790;53.022;12.968;2023-07-20T15:23:09;6.00;;;1.20;;
15383;SDS011;7790;53.022;12.968;2023-07-20T15:27:10;6.33;;;1.40;;
15383;SDS011;7790;53.022;12.968;2023-07-20T15:31:11;3.87;;;0.90;;
15383;SDS011;7790;53.022;12.968;2023-07-20T15:35:12;3.17;;;0.90;;
15383;SDS011;7790;53.022;12.968;2023-07-20T15:39:13;7.13;;;0.70;;
15383;SDS011;7790;53.022;12.968;2023-07-20T15:43:14;1.03;;;0.60;;
15383;SDS011;7790;53.022;12.968;2023-07-20T15:47:15;2.00;;;0.50;;
15383;SDS011;7790;53.022;12.968;2023-07-20T15:51:16;2.50;;;0.70;;
15383;SDS011;7790;53.022;12.968;2023-07-20T15:55:17;1.47;;;0.60;;
15383;SDS011;7790;53.022;12.968;2023-07-20T15:59:18;1.43;;;0.60;;
15383;SDS011;7790;53.022;12.968;2023-07-20T16:03:19;7.17;;;1.10;;
15383;SDS011;7790;53.022;12.968;2023-07-20T16:07:20;17.53;;;7.43;;
15383;SDS011;7790;53.022;12.968;2023-07-20T16:11:20;15.97;;;5.90;;
15383;SDS011;7790;53.022;12.968;2023-07-20T16:15:22;32.60;;;14.00;;
15383;SDS011;7790;53.022;12.968;2023-07-20T16:19:24;38.10;;;18.97;;
15383;SDS011;7790;53.022;12.968;2023-07-20T16:23:25;30.33;;;13.20;;
15383;SDS011;7790;53.022;12.968;2023-07-20T16:27:26;25.60;;;11.20;;
15383;SDS011;7790;53.022;12.968;2023-07-20T16:31:27;23.77;;;10.23;;
15383;SDS011;7790;53.022;12.968;2023-07-20T16:35:28;21.80;;;10.17;;
15383;SDS011;7790;53.022;12.968;2023-07-20T16:39:29;25.67;;;9.20;;
15383;SDS011;7790;53.022;12.968;2023-07-20T16:43:31;19.40;;;8.03;;
15383;SDS011;7790;53.022;12.968;2023-07-20T16:47:32;15.93;;;7.13;;
15383;SDS011;7790;53.022;12.968;2023-07-20T16:51:33;14.90;;;6.70;;
15383;SDS011;7790;53.022;12.968;2023-07-20T16:55:34;16.50;;;6.27;;
15383;SDS011;7790;53.022;12.968;2023-07-20T16:59:35;19.37;;;6.17;;
15383;SDS011;7790;53.022;12.968;2023-07-20T17:03:36;14.50;;;6.10;;
15383;SDS011;7790;53.022;12.968;2023-07-20T17:07:37;16.73;;;5.40;;
15383;SDS011;7790;53.022;12.968;2023-07-20T17:11:41;14.03;;;5.33;;
15383;SDS011;7790;53.022;12.968;2023-07-20T17:15:46;12.73;;;5.17;;
15383;SDS011;7790;53.022;12.968;2023-07-20T17:19:48;10.87;;;4.60;;
15383;SDS011;7790;53.022;12.968;2023-07-20T17:23:49;8.13;;;3.90;;
15383;SDS011;7790;53.022;12.968;2023-07-20T17:27:50;9.93;;;3.37;;
15383;SDS011;7790;53.022;12.968;2023-07-20T17:31:51;3.67;;;2.33;;
15383;SDS011;7790;53.022;12.968;2023-07-20T17:35:52;12.67;;;3.40;;
15383;SDS011;7790;53.022;12.968;2023-07-20T17:39:53;7.87;;;3.13;;
15383;SDS011;7790;53.022;12.968;2023-07-20T17:43:55;7.83;;;3.07;;
15383;SDS011;7790;53.022;12.968;2023-07-20T17:47:56;12.83;;;3.37;;
15383;SDS011;7790;53.022;12.968;2023-07-20T17:51:58;10.27;;;3.40;;
15383;SDS011;7790;53.022;12.968;2023-07-20T17:55:59;8.43;;;3.00;;
15383;SDS011;7790;53.022;12.968;2023-07-20T18:00:02;9.13;;;3.10;;
15383;SDS011;7790;53.022;12.968;2023-07-20T18:04:05;8.70;;;2.77;;
15383;SDS011;7790;53.022;12.968;2023-07-20T18:08:06;11.07;;;2.80;;
15383;SDS011;7790;53.022;12.968;2023-07-20T18:12:07;8.47;;;3.00;;
15383;SDS011;7790;53.022;12.968;2023-07-20T18:16:08;5.17;;;2.70;;
15383;SDS011;7790;53.022;12.968;2023-07-20T18:20:09;9.13;;;2.77;;
15383;SDS011;7790;53.022;12.968;2023-07-20T18:24:10;9.17;;;2.80;;
15383;SDS011;7790;53.022;12.968;2023-07-20T18:28:11;7.33;;;2.73;;
15383;SDS011;7790;53.022;12.968;2023-07-20T18:32:12;10.13;;;3.17;;
15383;SDS011;7790;53.022;12.968;2023-07-20T18:36:13;6.57;;;2.37;;
15383;SDS011;7790;53.022;12.968;2023-07-20T18:40:14;7.03;;;2.47;;
15383;SDS011;7790;53.022;12.968;2023-07-20T18:44:15;7.47;;;2.27;;
15383;SDS011;7790;53.022;12.968;2023-07-20T18:48:16;9.53;;;2.63;;
15383;SDS011;7790;53.022;12.968;2023-07-20T18:52:17;6.73;;;2.30;;
15383;SDS011;7790;53.022;12.968;2023-07-20T18:56:19;3.70;;;1.73;;
15383;SDS011;7790;53.022;12.968;2023-07-20T19:00:20;3.90;;;1.90;;
15383;SDS011;7790;53.022;12.968;2023-07-20T19:04:22;3.03;;;1.70;;
15383;SDS011;7790;53.022;12.968;2023-07-20T19:08:24;5.10;;;2.07;;
15383;SDS011;7790;53.022;12.968;2023-07-20T19:12:25;3.10;;;1.93;;
15383;SDS011;7790;53.022;12.968;2023-07-20T19:16:26;4.07;;;2.10;;
15383;SDS011;7790;53.022;12.968;2023-07-20T19:20:27;4.10;;;2.00;;
15383;SDS011;7790;53.022;12.968;2023-07-20T19:24:28;5.93;;;1.87;;
15383;SDS011;7790;53.022;12.968;2023-07-20T19:28:29;3.73;;;2.00;;
15383;SDS011;7790;53.022;12.968;2023-07-20T19:32:31;3.23;;;1.80;;
15383;SDS011;7790;53.022;12.968;2023-07-20T19:36:32;1.93;;;1.70;;
15383;SDS011;7790;53.022;12.968;2023-07-20T19:40:33;3.10;;;1.83;;
15383;SDS011;7790;53.022;12.968;2023-07-20T19:44:34;3.23;;;1.80;;
15383;SDS011;7790;53.022;12.968;2023-07-20T19:48:34;3.93;;;1.70;;
15383;SDS011;7790;53.022;12.968;2023-07-20T19:52:37;3.07;;;1.60;;
15383;SDS011;7790;53.022;12.968;2023-07-20T19:56:43;4.37;;;1.70;;
15383;SDS011;7790;53.022;12.968;2023-07-20T20:00:44;3.03;;;1.67;;
15383;SDS011;7790;53.022;12.968;2023-07-20T20:04:45;3.23;;;1.50;;
15383;SDS011;7790;53.022;12.968;2023-07-20T20:08:46;3.00;;;1.43;;
15383;SDS011;7790;53.022;12.968;2023-07-20T20:12:47;3.33;;;1.50;;
15383;SDS011;7790;53.022;12.968;2023-07-20T20:16:48;5.50;;;1.60;;
15383;SDS011;7790;53.022;12.968;2023-07-20T20:20:49;2.50;;;1.50;;
15383;SDS011;7790;53.022;12.968;2023-07-20T20:24:50;2.43;;;1.70;;
15383;SDS011;7790;53.022;12.968;2023-07-20T20:28:52;3.77;;;1.73;;
15383;SDS011;7790;53.022;12.968;2023-07-20T20:32:53;1.97;;;1.30;;
15383;SDS011;7790;53.022;12.968;2023-07-20T20:36:54;3.40;;;1.60;;
15383;SDS011;7790;53.022;12.968;2023-07-20T20:40:57;3.30;;;1.60;;
15383;SDS011;7790;53.022;12.968;2023-07-20T20:44:58;2.73;;;1.40;;
15383;SDS011;7790;53.022;12.968;2023-07-20T20:48:59;2.97;;;1.50;;
15383;SDS011;7790;53.022;12.968;2023-07-20T20:53:00;2.80;;;1.50;;
15383;SDS011;7790;53.022;12.968;2023-07-20T20:57:01;2.40;;;1.30;;
15383;SDS011;7790;53.022;12.968;2023-07-20T21:01:03;2.03;;;1.27;;
15383;SDS011;7790;53.022;12.968;2023-07-20T21:05:04;2.43;;;1.27;;
15383;SDS011;7790;53.022;12.968;2023-07-20T21:09:06;1.93;;;1.30;;
15383;SDS011;7790;53.022;12.968;2023-07-20T21:13:07;2.27;;;1.30;;
15383;SDS011;7790;53.022;12.968;2023-07-20T21:17:08;1.83;;;1.40;;
15383;SDS011;7790;53.022;12.968;2023-07-20T21:21:10;2.00;;;1.30;;
15383;SDS011;7790;53.022;12.968;2023-07-20T21:25:11;2.87;;;1.50;;
15383;SDS011;7790;53.022;12.968;2023-07-20T21:29:12;2.00;;;1.20;;
15383;SDS011;7790;53.022;12.968;2023-07-20T21:33:12;3.17;;;1.30;;
15383;SDS011;7790;53.022;12.968;2023-07-20T21:37:14;3.67;;;1.10;;
15383;SDS011;7790;53.022;12.968;2023-07-20T21:41:15;1.63;;;1.10;;
15383;SDS011;7790;53.022;12.968;2023-07-20T21:45:16;2.27;;;1.03;;
15383;SDS011;7790;53.022;12.968;2023-07-20T21:49:17;1.60;;;1.00;;
15383;SDS011;7790;53.022;12.968;2023-07-20T21:53:18;1.90;;;1.17;;
15383;SDS011;7790;53.022;12.968;2023-07-20T21:57:19;1.50;;;0.93;;
15383;SDS011;7790;53.022;12.968;2023-07-20T22:01:20;1.00;;;0.90;;
15383;SDS011;7790;53.022;12.968;2023-07-20T22:05:20;1.20;;;1.10;;
15383;SDS011;7790;53.022;12.968;2023-07-20T22:09:21;1.37;;;0.90;;
15383;SDS011;7790;53.022;12.968;2023-07-20T22:13:22;2.10;;;1.27;;
15383;SDS011;7790;53.022;12.968;2023-07-20T22:17:23;0.90;;;0.90;;
15383;SDS011;7790;53.022;12.968;2023-07-20T22:21:24;1.83;;;1.00;;
15383;SDS011;7790;53.022;12.968;2023-07-20T22:25:25;1.47;;;1.07;;
15383;SDS011;7790;53.022;12.968;2023-07-20T22:29:26;1.20;;;0.97;;
15383;SDS011;7790;53.022;12.968;2023-07-20T22:33:30;1.70;;;1.17;;
15383;SDS011;7790;53.022;12.968;2023-07-20T22:37:31;1.00;;;0.90;;
15383;SDS011;7790;53.022;12.968;2023-07-20T22:41:32;1.37;;;0.90;;
15383;SDS011;7790;53.022;12.968;2023-07-20T22:45:33;1.57;;;1.00;;
15383;SDS011;7790;53.022;12.968;2023-07-20T22:49:34;1.00;;;0.80;;
15383;SDS011;7790;53.022;12.968;2023-07-20T22:53:35;2.80;;;1.00;;
15383;SDS011;7790;53.022;12.968;2023-07-20T22:57:36;2.77;;;1.00;;
15383;SDS011;7790;53.022;12.968;2023-07-20T23:01:37;1.17;;;0.77;;
15383;SDS011;7790;53.022;12.968;2023-07-20T23:05:43;2.93;;;0.97;;
15383;SDS011;7790;53.022;12.968;2023-07-20T23:09:44;1.20;;;0.90;;
15383;SDS011;7790;53.022;12.968;2023-07-20T23:13:46;1.20;;;0.70;;
15383;SDS011;7790;53.022;12.968;2023-07-20T23:17:48;2.00;;;1.07;;
15383;SDS011;7790;53.022;12.968;2023-07-20T23:21:49;1.07;;;0.80;;
15383;SDS011;7790;53.022;12.968;2023-07-20T23:25:53;1.60;;;0.80;;
15383;SDS011;7790;53.022;12.968;2023-07-20T23:29:55;1.40;;;0.70;;
15383;SDS011;7790;53.022;12.968;2023-07-20T23:33:56;1.33;;;0.67;;
15383;SDS011;7790;53.022;12.968;2023-07-20T23:37:56;1.33;;;0.93;;
15383;SDS011;7790;53.022;12.968;2023-07-20T23:42:01;0.77;;;0.77;;
15383;SDS011;7790;53.022;12.968;2023-07-20T23:46:04;1.63;;;0.70;;
15383;SDS011;7790;53.022;12.968;2023-07-20T23:50:05;2.70;;;0.90;;
15383;SDS011;7790;53.022;12.968;2023-07-20T23:54:09;1.17;;;0.80;;
15383;SDS011;7790;53.022;12.968;2023-07-20T23:58:10;2.00;;;1.13;;
